sensor_id;sensor_type;location;lat;lon;timestamp;temperature;humidity
21267;DHT22;10791;53.108;18.326;2022-09-27T00:02:40;8.10;99.90
21267;DHT22;10791;53.108;18.326;2022-09-27T00:07:44;8.00;99.90
21267;DHT22;10791;53.108;18.326;2022-09-27T00:12:47;8.00;99.90
21267;DHT22;10791;53.108;18.326;2022-09-27T00:17:50;7.90;99.90
21267;DHT22;10791;53.108;18.326;2022-09-27T00:22:54;7.80;99.90
21267;DHT22;10791;53.108;18.326;2022-09-27T00:27:57;7.80;99.90
21267;DHT22;10791;53.108;18.326;2022-09-27T00:33:00;7.70;99.90
21267;DHT22;10791;53.108;18.326;2022-09-27T00:38:04;7.50;99.90
21267;DHT22;10791;53.108;18.326;2022-09-27T00:43:20;7.50;99.90
21267;DHT22;10791;53.108;18.326;2022-09-27T00:48:26;7.30;99.90
21267;DHT22;10791;53.108;18.326;2022-09-27T00:53:34;7.30;99.90
21267;DHT22;10791;53.108;18.326;2022-09-27T00:58:45;7.10;99.90
21267;DHT22;10791;53.108;18.326;2022-09-27T01:04:06;7.00;99.90
21267;DHT22;10791;53.108;18.326;2022-09-27T01:09:11;6.90;99.90
21267;DHT22;10791;53.108;18.326;2022-09-27T01:14:21;6.90;99.90
21267;DHT22;10791;53.108;18.326;2022-09-27T01:19:34;6.80;99.90
21267;DHT22;10791;53.108;18.326;2022-09-27T01:30:19;6.80;99.90
21267;DHT22;10791;53.108;18.326;2022-09-27T01:46:38;6.70;99.90
21267;DHT22;10791;53.108;18.326;2022-09-27T01:51:53;6.60;99.90
21267;DHT22;10791;53.108;18.326;2022-09-27T01:56:58;6.50;99.90
21267;DHT22;10791;53.108;18.326;2022-09-27T02:02:06;6.50;99.90
21267;DHT22;10791;53.108;18.326;2022-09-27T02:07:15;6.50;99.90
21267;DHT22;10791;53.108;18.326;2022-09-27T02:12:27;6.50;99.90
21267;DHT22;10791;53.108;18.326;2022-09-27T02:28:21;6.50;99.90
21267;DHT22;10791;53.108;18.326;2022-09-27T02:33:44;6.50;99.90
21267;DHT22;10791;53.108;18.326;2022-09-27T02:38:49;6.50;99.90
21267;DHT22;10791;53.108;18.326;2022-09-27T02:44:00;6.50;99.90
21267;DHT22;10791;53.108;18.326;2022-09-27T03:04:54;6.80;99.90
21267;DHT22;10791;53.108;18.326;2022-09-27T03:09:57;6.80;99.90
21267;DHT22;10791;53.108;18.326;2022-09-27T03:15:01;6.90;99.90
21267;DHT22;10791;53.108;18.326;2022-09-27T03:20:05;7.00;99.90
21267;DHT22;10791;53.108;18.326;2022-09-27T03:25:08;7.00;99.90
21267;DHT22;10791;53.108;18.326;2022-09-27T03:30:13;7.10;99.90
21267;DHT22;10791;53.108;18.326;2022-09-27T03:35:16;7.20;99.90
21267;DHT22;10791;53.108;18.326;2022-09-27T03:40:19;7.30;99.90
21267;DHT22;10791;53.108;18.326;2022-09-27T03:45:23;7.30;99.90
21267;DHT22;10791;53.108;18.326;2022-09-27T03:50:26;7.30;99.90
21267;DHT22;10791;53.108;18.326;2022-09-27T03:55:29;7.30;99.90
21267;DHT22;10791;53.108;18.326;2022-09-27T04:00:33;7.40;99.90
21267;DHT22;10791;53.108;18.326;2022-09-27T04:05:36;7.50;99.90
21267;DHT22;10791;53.108;18.326;2022-09-27T04:10:41;7.50;99.90
21267;DHT22;10791;53.108;18.326;2022-09-27T04:15:44;7.60;99.90
21267;DHT22;10791;53.108;18.326;2022-09-27T04:20:53;7.60;99.90
21267;DHT22;10791;53.108;18.326;2022-09-27T04:25:56;7.60;99.90
21267;DHT22;10791;53.108;18.326;2022-09-27T04:31:00;7.70;99.90
21267;DHT22;10791;53.108;18.326;2022-09-27T04:36:03;7.80;99.90
21267;DHT22;10791;53.108;18.326;2022-09-27T04:41:26;7.90;99.90
21267;DHT22;10791;53.108;18.326;2022-09-27T04:46:30;8.00;99.90
21267;DHT22;10791;53.108;18.326;2022-09-27T04:51:33;8.00;99.90
21267;DHT22;10791;53.108;18.326;2022-09-27T04:56:37;8.10;99.90
21267;DHT22;10791;53.108;18.326;2022-09-27T05:01:41;8.10;99.90
21267;DHT22;10791;53.108;18.326;2022-09-27T05:06:44;8.20;99.90
21267;DHT22;10791;53.108;18.326;2022-09-27T05:11:47;8.20;99.90
21267;DHT22;10791;53.108;18.326;2022-09-27T05:16:53;8.30;99.90
21267;DHT22;10791;53.108;18.326;2022-09-27T05:21:56;8.40;99.90
21267;DHT22;10791;53.108;18.326;2022-09-27T05:27:01;8.40;99.90
21267;DHT22;10791;53.108;18.326;2022-09-27T05:32:04;8.50;99.90
21267;DHT22;10791;53.108;18.326;2022-09-27T05:37:08;8.60;99.90
21267;DHT22;10791;53.108;18.326;2022-09-27T05:42:11;8.70;99.90
21267;DHT22;10791;53.108;18.326;2022-09-27T05:47:17;8.80;99.90
21267;DHT22;10791;53.108;18.326;2022-09-27T05:52:20;8.80;99.90
21267;DHT22;10791;53.108;18.326;2022-09-27T05:57:27;8.80;99.90
21267;DHT22;10791;53.108;18.326;2022-09-27T06:02:30;8.90;99.90
21267;DHT22;10791;53.108;18.326;2022-09-27T06:07:34;9.00;99.90
21267;DHT22;10791;53.108;18.326;2022-09-27T06:12:37;9.10;99.90
21267;DHT22;10791;53.108;18.326;2022-09-27T06:17:41;9.20;99.90
21267;DHT22;10791;53.108;18.326;2022-09-27T06:22:45;9.30;99.90
21267;DHT22;10791;53.108;18.326;2022-09-27T06:27:48;9.30;99.90
21267;DHT22;10791;53.108;18.326;2022-09-27T06:32:58;9.50;99.90
21267;DHT22;10791;53.108;18.326;2022-09-27T06:38:03;9.70;99.90
21267;DHT22;10791;53.108;18.326;2022-09-27T06:43:09;9.90;99.90
21267;DHT22;10791;53.108;18.326;2022-09-27T06:48:13;10.10;99.90
21267;DHT22;10791;53.108;18.326;2022-09-27T06:53:18;10.10;99.90
21267;DHT22;10791;53.108;18.326;2022-09-27T06:58:21;10.20;99.90
21267;DHT22;10791;53.108;18.326;2022-09-27T07:03:43;10.30;99.90
21267;DHT22;10791;53.108;18.326;2022-09-27T07:08:51;10.50;99.90
21267;DHT22;10791;53.108;18.326;2022-09-27T07:13:55;10.60;99.90
21267;DHT22;10791;53.108;18.326;2022-09-27T07:18:59;10.80;99.90
21267;DHT22;10791;53.108;18.326;2022-09-27T07:24:02;10.80;99.90
21267;DHT22;10791;53.108;18.326;2022-09-27T07:29:08;10.90;99.90
21267;DHT22;10791;53.108;18.326;2022-09-27T07:34:13;10.90;99.90
21267;DHT22;10791;53.108;18.326;2022-09-27T07:39:16;11.00;99.90
21267;DHT22;10791;53.108;18.326;2022-09-27T07:44:20;11.10;99.90
21267;DHT22;10791;53.108;18.326;2022-09-27T07:49:23;11.20;99.90
21267;DHT22;10791;53.108;18.326;2022-09-27T07:54:28;11.10;99.90
21267;DHT22;10791;53.108;18.326;2022-09-27T07:59:31;11.20;99.90
21267;DHT22;10791;53.108;18.326;2022-09-27T08:04:35;11.20;99.90
21267;DHT22;10791;53.108;18.326;2022-09-27T08:09:38;11.30;99.90
21267;DHT22;10791;53.108;18.326;2022-09-27T08:14:41;11.40;99.90
21267;DHT22;10791;53.108;18.326;2022-09-27T08:19:49;11.50;99.90
21267;DHT22;10791;53.108;18.326;2022-09-27T08:24:53;11.60;99.90
21267;DHT22;10791;53.108;18.326;2022-09-27T08:29:56;11.70;99.90
21267;DHT22;10791;53.108;18.326;2022-09-27T08:35:00;11.80;99.90
21267;DHT22;10791;53.108;18.326;2022-09-27T08:40:03;12.00;99.90
21267;DHT22;10791;53.108;18.326;2022-09-27T08:45:15;12.00;99.90
21267;DHT22;10791;53.108;18.326;2022-09-27T08:50:29;12.10;99.90
21267;DHT22;10791;53.108;18.326;2022-09-27T08:55:47;12.20;99.90
21267;DHT22;10791;53.108;18.326;2022-09-27T09:00:57;12.30;99.90
21267;DHT22;10791;53.108;18.326;2022-09-27T09:06:21;12.50;99.90
21267;DHT22;10791;53.108;18.326;2022-09-27T09:11:57;12.50;99.90
21267;DHT22;10791;53.108;18.326;2022-09-27T09:17:34;12.50;99.90
21267;DHT22;10791;53.108;18.326;2022-09-27T09:22:52;12.70;99.90
21267;DHT22;10791;53.108;18.326;2022-09-27T09:28:24;12.90;99.90
21267;DHT22;10791;53.108;18.326;2022-09-27T09:33:37;13.20;99.90
21267;DHT22;10791;53.108;18.326;2022-09-27T09:39:04;13.30;99.90
21267;DHT22;10791;53.108;18.326;2022-09-27T09:44:17;13.50;99.90
21267;DHT22;10791;53.108;18.326;2022-09-27T09:54:47;13.70;99.90
21267;DHT22;10791;53.108;18.326;2022-09-27T10:00:22;13.80;99.90
21267;DHT22;10791;53.108;18.326;2022-09-27T10:05:27;13.80;99.90
21267;DHT22;10791;53.108;18.326;2022-09-27T10:10:31;13.80;99.90
21267;DHT22;10791;53.108;18.326;2022-09-27T10:15:35;14.00;99.90
21267;DHT22;10791;53.108;18.326;2022-09-27T10:20:42;13.90;99.90
21267;DHT22;10791;53.108;18.326;2022-09-27T10:25:58;13.90;99.90
21267;DHT22;10791;53.108;18.326;2022-09-27T10:31:13;13.90;99.90
21267;DHT22;10791;53.108;18.326;2022-09-27T10:36:28;13.90;99.90
21267;DHT22;10791;53.108;18.326;2022-09-27T10:41:37;13.90;99.90
21267;DHT22;10791;53.108;18.326;2022-09-27T10:46:42;13.90;99.90
21267;DHT22;10791;53.108;18.326;2022-09-27T10:51:50;13.80;99.90
21267;DHT22;10791;53.108;18.326;2022-09-27T10:57:22;13.80;99.90
21267;DHT22;10791;53.108;18.326;2022-09-27T11:02:29;13.90;99.90
21267;DHT22;10791;53.108;18.326;2022-09-27T11:07:35;14.20;99.90
21267;DHT22;10791;53.108;18.326;2022-09-27T11:12:39;14.40;99.90
21267;DHT22;10791;53.108;18.326;2022-09-27T11:17:50;14.70;99.90
21267;DHT22;10791;53.108;18.326;2022-09-27T11:23:19;14.80;99.90
21267;DHT22;10791;53.108;18.326;2022-09-27T11:34:38;15.00;99.90
21267;DHT22;10791;53.108;18.326;2022-09-27T12:12:31;15.60;99.90
21267;DHT22;10791;53.108;18.326;2022-09-27T12:17:41;15.70;99.90
21267;DHT22;10791;53.108;18.326;2022-09-27T12:23:00;15.60;99.90
21267;DHT22;10791;53.108;18.326;2022-09-27T12:28:14;15.70;99.90
21267;DHT22;10791;53.108;18.326;2022-09-27T12:33:38;15.70;99.90
21267;DHT22;10791;53.108;18.326;2022-09-27T12:39:05;15.70;99.90
21267;DHT22;10791;53.108;18.326;2022-09-27T12:44:14;15.70;99.90
21267;DHT22;10791;53.108;18.326;2022-09-27T12:49:36;15.80;99.90
21267;DHT22;10791;53.108;18.326;2022-09-27T13:00:51;15.70;99.90
21267;DHT22;10791;53.108;18.326;2022-09-27T13:05:59;15.70;99.90
21267;DHT22;10791;53.108;18.326;2022-09-27T13:16:10;15.40;99.90
21267;DHT22;10791;53.108;18.326;2022-09-27T13:26:50;15.40;99.90
21267;DHT22;10791;53.108;18.326;2022-09-27T13:36:56;15.10;99.90
21267;DHT22;10791;53.108;18.326;2022-09-27T13:42:09;15.00;99.90
21267;DHT22;10791;53.108;18.326;2022-09-27T13:47:22;15.00;99.90
21267;DHT22;10791;53.108;18.326;2022-09-27T13:52:44;14.70;99.90
21267;DHT22;10791;53.108;18.326;2022-09-27T13:57:56;14.50;99.90
21267;DHT22;10791;53.108;18.326;2022-09-27T14:03:13;14.40;99.90
21267;DHT22;10791;53.108;18.326;2022-09-27T14:13:48;14.30;99.90
21267;DHT22;10791;53.108;18.326;2022-09-27T14:18:55;14.30;99.90
21267;DHT22;10791;53.108;18.326;2022-09-27T14:29:24;14.30;99.90
21267;DHT22;10791;53.108;18.326;2022-09-27T14:34:29;14.20;99.90
21267;DHT22;10791;53.108;18.326;2022-09-27T14:39:33;14.10;99.90
21267;DHT22;10791;53.108;18.326;2022-09-27T14:44:43;14.10;99.90
21267;DHT22;10791;53.108;18.326;2022-09-27T14:55:06;14.10;99.90
21267;DHT22;10791;53.108;18.326;2022-09-27T15:05:31;13.80;99.90
21267;DHT22;10791;53.108;18.326;2022-09-27T15:10:35;13.80;99.90
21267;DHT22;10791;53.108;18.326;2022-09-27T15:15:42;13.80;99.90
21267;DHT22;10791;53.108;18.326;2022-09-27T15:20:55;13.70;99.90
21267;DHT22;10791;53.108;18.326;2022-09-27T15:26:17;13.70;99.90
21267;DHT22;10791;53.108;18.326;2022-09-27T15:31:32;13.50;99.90
21267;DHT22;10791;53.108;18.326;2022-09-27T15:42:24;13.00;99.90
21267;DHT22;10791;53.108;18.326;2022-09-27T15:52:47;12.60;99.90
21267;DHT22;10791;53.108;18.326;2022-09-27T15:57:58;12.60;99.90
21267;DHT22;10791;53.108;18.326;2022-09-27T16:03:03;12.50;99.90
21267;DHT22;10791;53.108;18.326;2022-09-27T16:08:30;12.40;99.90
21267;DHT22;10791;53.108;18.326;2022-09-27T16:13:33;12.20;99.90
21267;DHT22;10791;53.108;18.326;2022-09-27T16:18:36;12.10;99.90
21267;DHT22;10791;53.108;18.326;2022-09-27T16:23:40;12.00;99.90
21267;DHT22;10791;53.108;18.326;2022-09-27T16:28:44;11.90;99.90
21267;DHT22;10791;53.108;18.326;2022-09-27T16:33:47;11.80;99.90
21267;DHT22;10791;53.108;18.326;2022-09-27T16:38:53;11.80;99.90
21267;DHT22;10791;53.108;18.326;2022-09-27T16:43:56;11.60;99.90
21267;DHT22;10791;53.108;18.326;2022-09-27T16:49:00;11.50;99.90
21267;DHT22;10791;53.108;18.326;2022-09-27T16:54:06;11.50;99.90
21267;DHT22;10791;53.108;18.326;2022-09-27T16:59:10;11.50;99.90
21267;DHT22;10791;53.108;18.326;2022-09-27T17:04:14;11.50;99.90
21267;DHT22;10791;53.108;18.326;2022-09-27T17:09:18;11.50;99.90
21267;DHT22;10791;53.108;18.326;2022-09-27T17:14:21;11.50;99.90
21267;DHT22;10791;53.108;18.326;2022-09-27T17:19:25;11.50;99.90
21267;DHT22;10791;53.108;18.326;2022-09-27T17:24:30;11.50;99.90
21267;DHT22;10791;53.108;18.326;2022-09-27T17:29:33;11.50;99.90
21267;DHT22;10791;53.108;18.326;2022-09-27T17:34:37;11.50;99.90
21267;DHT22;10791;53.108;18.326;2022-09-27T17:39:47;11.50;99.90
21267;DHT22;10791;53.108;18.326;2022-09-27T17:44:51;11.50;99.90
21267;DHT22;10791;53.108;18.326;2022-09-27T17:49:55;11.50;99.90
21267;DHT22;10791;53.108;18.326;2022-09-27T17:55:17;11.50;99.90
21267;DHT22;10791;53.108;18.326;2022-09-27T18:00:21;11.50;99.90
21267;DHT22;10791;53.108;18.326;2022-09-27T18:05:27;11.60;99.90
21267;DHT22;10791;53.108;18.326;2022-09-27T18:10:33;11.60;99.90
21267;DHT22;10791;53.108;18.326;2022-09-27T18:15:38;11.60;99.90
21267;DHT22;10791;53.108;18.326;2022-09-27T18:20:43;11.60;99.90
21267;DHT22;10791;53.108;18.326;2022-09-27T18:25:52;11.70;99.90
21267;DHT22;10791;53.108;18.326;2022-09-27T18:31:04;11.70;99.90
21267;DHT22;10791;53.108;18.326;2022-09-27T18:36:26;11.60;99.90
21267;DHT22;10791;53.108;18.326;2022-09-27T18:41:32;11.60;99.90
21267;DHT22;10791;53.108;18.326;2022-09-27T18:46:36;11.60;99.90
21267;DHT22;10791;53.108;18.326;2022-09-27T18:51:41;11.60;99.90
21267;DHT22;10791;53.108;18.326;2022-09-27T18:56:48;11.50;99.90
21267;DHT22;10791;53.108;18.326;2022-09-27T19:01:52;11.50;99.90
21267;DHT22;10791;53.108;18.326;2022-09-27T19:06:56;11.50;99.90
21267;DHT22;10791;53.108;18.326;2022-09-27T19:12:00;11.50;99.90
21267;DHT22;10791;53.108;18.326;2022-09-27T19:17:04;11.50;99.90
21267;DHT22;10791;53.108;18.326;2022-09-27T19:22:08;11.50;99.90
21267;DHT22;10791;53.108;18.326;2022-09-27T19:27:13;11.40;99.90
21267;DHT22;10791;53.108;18.326;2022-09-27T19:32:18;11.40;99.90
21267;DHT22;10791;53.108;18.326;2022-09-27T19:37:22;11.30;99.90
21267;DHT22;10791;53.108;18.326;2022-09-27T19:42:27;11.20;99.90
21267;DHT22;10791;53.108;18.326;2022-09-27T19:47:30;11.20;99.90
21267;DHT22;10791;53.108;18.326;2022-09-27T19:52:34;11.30;99.90
21267;DHT22;10791;53.108;18.326;2022-09-27T19:57:37;11.20;99.90
21267;DHT22;10791;53.108;18.326;2022-09-27T20:02:43;11.10;99.90
21267;DHT22;10791;53.108;18.326;2022-09-27T20:07:48;11.20;99.90
21267;DHT22;10791;53.108;18.326;2022-09-27T20:12:56;11.10;99.90
21267;DHT22;10791;53.108;18.326;2022-09-27T20:18:01;11.20;99.90
21267;DHT22;10791;53.108;18.326;2022-09-27T20:23:11;11.20;99.90
21267;DHT22;10791;53.108;18.326;2022-09-27T20:28:14;11.20;99.90
21267;DHT22;10791;53.108;18.326;2022-09-27T20:33:18;11.10;99.90
21267;DHT22;10791;53.108;18.326;2022-09-27T20:38:41;11.20;99.90
21267;DHT22;10791;53.108;18.326;2022-09-27T20:43:55;11.20;99.90
21267;DHT22;10791;53.108;18.326;2022-09-27T20:49:01;11.20;99.90
21267;DHT22;10791;53.108;18.326;2022-09-27T20:54:07;11.10;99.90
21267;DHT22;10791;53.108;18.326;2022-09-27T20:59:19;11.10;99.90
21267;DHT22;10791;53.108;18.326;2022-09-27T21:04:23;11.20;99.90
21267;DHT22;10791;53.108;18.326;2022-09-27T21:09:27;11.20;99.90
21267;DHT22;10791;53.108;18.326;2022-09-27T21:14:31;11.10;99.90
21267;DHT22;10791;53.108;18.326;2022-09-27T21:19:34;11.10;99.90
21267;DHT22;10791;53.108;18.326;2022-09-27T21:24:38;11.10;99.90
21267;DHT22;10791;53.108;18.326;2022-09-27T21:29:42;11.10;99.90
21267;DHT22;10791;53.108;18.326;2022-09-27T21:34:45;11.10;99.90
21267;DHT22;10791;53.108;18.326;2022-09-27T21:39:49;11.10;99.90
21267;DHT22;10791;53.108;18.326;2022-09-27T21:44:52;11.00;99.90
21267;DHT22;10791;53.108;18.326;2022-09-27T21:49:57;11.00;99.90
21267;DHT22;10791;53.108;18.326;2022-09-27T21:55:00;11.00;99.90
21267;DHT22;10791;53.108;18.326;2022-09-27T22:00:07;11.00;99.90
21267;DHT22;10791;53.108;18.326;2022-09-27T22:05:10;11.00;99.90
21267;DHT22;10791;53.108;18.326;2022-09-27T22:10:14;11.00;99.90
21267;DHT22;10791;53.108;18.326;2022-09-27T22:15:17;11.00;99.90
21267;DHT22;10791;53.108;18.326;2022-09-27T22:20:24;11.00;99.90
21267;DHT22;10791;53.108;18.326;2022-09-27T22:25:30;11.00;99.90
21267;DHT22;10791;53.108;18.326;2022-09-27T22:30:33;11.00;99.90
21267;DHT22;10791;53.108;18.326;2022-09-27T22:35:45;10.90;99.90
21267;DHT22;10791;53.108;18.326;2022-09-27T22:41:06;11.00;99.90
21267;DHT22;10791;53.108;18.326;2022-09-27T22:46:09;10.90;99.90
21267;DHT22;10791;53.108;18.326;2022-09-27T22:51:13;11.00;99.90
21267;DHT22;10791;53.108;18.326;2022-09-27T22:56:18;10.90;99.90
21267;DHT22;10791;53.108;18.326;2022-09-27T23:01:23;11.00;99.90
21267;DHT22;10791;53.108;18.326;2022-09-27T23:06:27;11.00;99.90
21267;DHT22;10791;53.108;18.326;2022-09-27T23:11:30;11.00;99.90
21267;DHT22;10791;53.108;18.326;2022-09-27T23:16:34;11.00;99.90
21267;DHT22;10791;53.108;18.326;2022-09-27T23:21:37;11.00;99.90
21267;DHT22;10791;53.108;18.326;2022-09-27T23:26:41;11.00;99.90
21267;DHT22;10791;53.108;18.326;2022-09-27T23:31:44;11.00;99.90
21267;DHT22;10791;53.108;18.326;2022-09-27T23:36:47;11.00;99.90
21267;DHT22;10791;53.108;18.326;2022-09-27T23:41:52;11.00;99.90
21267;DHT22;10791;53.108;18.326;2022-09-27T23:46:55;11.00;99.90
21267;DHT22;10791;53.108;18.326;2022-09-27T23:52:05;11.00;99.90
21267;DHT22;10791;53.108;18.326;2022-09-27T23:57:08;10.90;99.90
